sensor_id;sensor_type;location;lat;lon;timestamp;P1;durP1;ratioP1;P2;durP2;ratioP2
24206;SDS011;12351;52.284;9.160;2023-08-21T00:02:14;3.43;;;0.83;;
24206;SDS011;12351;52.284;9.160;2023-08-21T00:05:01;4.13;;;0.80;;
24206;SDS011;12351;52.284;9.160;2023-08-21T00:07:54;2.07;;;0.67;;
24206;SDS011;12351;52.284;9.160;2023-08-21T00:10:45;4.72;;;0.95;;
24206;SDS011;12351;52.284;9.160;2023-08-21T00:13:36;2.47;;;0.73;;
24206;SDS011;12351;52.284;9.160;2023-08-21T00:16:27;3.53;;;0.90;;
24206;SDS011;12351;52.284;9.160;2023-08-21T00:19:17;2.23;;;0.70;;
24206;SDS011;12351;52.284;9.160;2023-08-21T00:22:07;1.63;;;0.63;;
24206;SDS011;12351;52.284;9.160;2023-08-21T00:24:56;3.97;;;1.13;;
24206;SDS011;12351;52.284;9.160;2023-08-21T00:27:47;4.23;;;0.70;;
24206;SDS011;12351;52.284;9.160;2023-08-21T00:30:37;2.30;;;0.70;;
24206;SDS011;12351;52.284;9.160;2023-08-21T00:33:24;4.23;;;0.80;;
24206;SDS011;12351;52.284;9.160;2023-08-21T00:36:14;2.43;;;0.80;;
24206;SDS011;12351;52.284;9.160;2023-08-21T00:39:05;2.03;;;0.80;;
24206;SDS011;12351;52.284;9.160;2023-08-21T00:41:59;3.52;;;1.10;;
24206;SDS011;12351;52.284;9.160;2023-08-21T00:44:48;2.70;;;0.67;;
24206;SDS011;12351;52.284;9.160;2023-08-21T00:47:39;3.47;;;0.70;;
24206;SDS011;12351;52.284;9.160;2023-08-21T00:50:30;2.35;;;0.88;;
24206;SDS011;12351;52.284;9.160;2023-08-21T00:53:20;2.40;;;0.53;;
24206;SDS011;12351;52.284;9.160;2023-08-21T00:56:08;3.50;;;0.80;;
24206;SDS011;12351;52.284;9.160;2023-08-21T00:58:56;4.13;;;0.73;;
24206;SDS011;12351;52.284;9.160;2023-08-21T01:01:47;2.90;;;0.70;;
24206;SDS011;12351;52.284;9.160;2023-08-21T01:04:36;3.90;;;0.73;;
24206;SDS011;12351;52.284;9.160;2023-08-21T01:07:29;1.93;;;0.67;;
24206;SDS011;12351;52.284;9.160;2023-08-21T01:10:21;3.20;;;0.53;;
24206;SDS011;12351;52.284;9.160;2023-08-21T01:16:00;5.33;;;0.77;;
24206;SDS011;12351;52.284;9.160;2023-08-21T01:18:50;2.13;;;0.50;;
24206;SDS011;12351;52.284;9.160;2023-08-21T01:21:39;2.97;;;0.70;;
24206;SDS011;12351;52.284;9.160;2023-08-21T01:24:26;2.43;;;0.63;;
24206;SDS011;12351;52.284;9.160;2023-08-21T01:27:16;7.60;;;0.80;;
24206;SDS011;12351;52.284;9.160;2023-08-21T01:30:06;2.20;;;0.50;;
24206;SDS011;12351;52.284;9.160;2023-08-21T01:35:50;3.60;;;0.60;;
24206;SDS011;12351;52.284;9.160;2023-08-21T01:38:42;3.43;;;0.50;;
24206;SDS011;12351;52.284;9.160;2023-08-21T01:41:32;2.47;;;0.60;;
24206;SDS011;12351;52.284;9.160;2023-08-21T01:44:20;1.70;;;0.60;;
24206;SDS011;12351;52.284;9.160;2023-08-21T01:47:12;1.80;;;0.60;;
24206;SDS011;12351;52.284;9.160;2023-08-21T01:50:05;2.63;;;0.70;;
24206;SDS011;12351;52.284;9.160;2023-08-21T01:52:54;2.13;;;0.70;;
24206;SDS011;12351;52.284;9.160;2023-08-21T01:55:45;1.60;;;0.60;;
24206;SDS011;12351;52.284;9.160;2023-08-21T01:58:33;3.23;;;0.60;;
24206;SDS011;12351;52.284;9.160;2023-08-21T02:01:24;2.87;;;0.80;;
24206;SDS011;12351;52.284;9.160;2023-08-21T02:04:12;2.50;;;0.77;;
24206;SDS011;12351;52.284;9.160;2023-08-21T02:09:53;2.00;;;0.60;;
24206;SDS011;12351;52.284;9.160;2023-08-21T02:12:45;2.67;;;0.70;;
24206;SDS011;12351;52.284;9.160;2023-08-21T02:15:38;1.70;;;0.65;;
24206;SDS011;12351;52.284;9.160;2023-08-21T02:18:27;4.10;;;0.50;;
24206;SDS011;12351;52.284;9.160;2023-08-21T02:21:16;1.77;;;0.43;;
24206;SDS011;12351;52.284;9.160;2023-08-21T02:24:07;4.37;;;0.80;;
24206;SDS011;12351;52.284;9.160;2023-08-21T02:26:58;1.50;;;0.80;;
24206;SDS011;12351;52.284;9.160;2023-08-21T02:29:52;4.43;;;0.60;;
24206;SDS011;12351;52.284;9.160;2023-08-21T02:32:44;4.90;;;0.73;;
24206;SDS011;12351;52.284;9.160;2023-08-21T02:35:35;1.20;;;0.62;;
24206;SDS011;12351;52.284;9.160;2023-08-21T02:38:26;4.93;;;0.90;;
24206;SDS011;12351;52.284;9.160;2023-08-21T02:41:16;1.93;;;0.60;;
24206;SDS011;12351;52.284;9.160;2023-08-21T02:46:59;2.58;;;0.82;;
24206;SDS011;12351;52.284;9.160;2023-08-21T02:49:46;5.03;;;1.00;;
24206;SDS011;12351;52.284;9.160;2023-08-21T02:52:37;3.60;;;0.70;;
24206;SDS011;12351;52.284;9.160;2023-08-21T02:55:31;2.62;;;0.88;;
24206;SDS011;12351;52.284;9.160;2023-08-21T02:58:20;2.50;;;0.67;;
24206;SDS011;12351;52.284;9.160;2023-08-21T03:01:12;1.37;;;0.70;;
24206;SDS011;12351;52.284;9.160;2023-08-21T03:04:02;3.37;;;0.70;;
24206;SDS011;12351;52.284;9.160;2023-08-21T03:06:51;3.20;;;0.80;;
24206;SDS011;12351;52.284;9.160;2023-08-21T03:09:42;1.80;;;0.60;;
24206;SDS011;12351;52.284;9.160;2023-08-21T03:12:33;2.63;;;0.70;;
24206;SDS011;12351;52.284;9.160;2023-08-21T03:15:23;3.47;;;0.80;;
24206;SDS011;12351;52.284;9.160;2023-08-21T03:18:12;2.03;;;0.60;;
24206;SDS011;12351;52.284;9.160;2023-08-21T03:21:03;1.27;;;0.70;;
24206;SDS011;12351;52.284;9.160;2023-08-21T03:23:54;1.43;;;0.80;;
24206;SDS011;12351;52.284;9.160;2023-08-21T03:26:45;4.80;;;1.00;;
24206;SDS011;12351;52.284;9.160;2023-08-21T03:29:34;1.80;;;0.60;;
24206;SDS011;12351;52.284;9.160;2023-08-21T03:32:23;4.63;;;0.80;;
24206;SDS011;12351;52.284;9.160;2023-08-21T03:35:14;2.37;;;0.80;;
24206;SDS011;12351;52.284;9.160;2023-08-21T03:38:03;1.73;;;0.80;;
24206;SDS011;12351;52.284;9.160;2023-08-21T03:40:55;2.97;;;0.97;;
24206;SDS011;12351;52.284;9.160;2023-08-21T03:43:44;3.67;;;1.03;;
24206;SDS011;12351;52.284;9.160;2023-08-21T03:46:34;3.80;;;1.07;;
24206;SDS011;12351;52.284;9.160;2023-08-21T03:49:24;4.80;;;0.90;;
24206;SDS011;12351;52.284;9.160;2023-08-21T03:52:13;4.00;;;1.10;;
24206;SDS011;12351;52.284;9.160;2023-08-21T03:55:04;2.65;;;1.10;;
24206;SDS011;12351;52.284;9.160;2023-08-21T03:57:55;2.80;;;0.80;;
24206;SDS011;12351;52.284;9.160;2023-08-21T04:00:45;1.30;;;0.70;;
24206;SDS011;12351;52.284;9.160;2023-08-21T04:03:38;1.98;;;0.78;;
24206;SDS011;12351;52.284;9.160;2023-08-21T04:06:26;2.72;;;1.00;;
24206;SDS011;12351;52.284;9.160;2023-08-21T04:09:17;2.13;;;0.83;;
24206;SDS011;12351;52.284;9.160;2023-08-21T04:12:06;4.00;;;0.93;;
24206;SDS011;12351;52.284;9.160;2023-08-21T04:14:54;1.63;;;0.87;;
24206;SDS011;12351;52.284;9.160;2023-08-21T04:17:45;5.53;;;1.12;;
24206;SDS011;12351;52.284;9.160;2023-08-21T04:20:34;5.80;;;0.93;;
24206;SDS011;12351;52.284;9.160;2023-08-21T04:23:25;3.30;;;0.80;;
24206;SDS011;12351;52.284;9.160;2023-08-21T04:26:15;4.07;;;1.00;;
24206;SDS011;12351;52.284;9.160;2023-08-21T04:29:04;2.53;;;0.83;;
24206;SDS011;12351;52.284;9.160;2023-08-21T04:31:56;6.73;;;1.00;;
24206;SDS011;12351;52.284;9.160;2023-08-21T04:34:44;2.57;;;0.90;;
24206;SDS011;12351;52.284;9.160;2023-08-21T04:37:37;2.97;;;0.90;;
24206;SDS011;12351;52.284;9.160;2023-08-21T04:40:26;3.77;;;0.87;;
24206;SDS011;12351;52.284;9.160;2023-08-21T04:43:17;3.13;;;0.70;;
24206;SDS011;12351;52.284;9.160;2023-08-21T04:46:11;1.95;;;0.80;;
24206;SDS011;12351;52.284;9.160;2023-08-21T04:49:01;3.77;;;0.80;;
24206;SDS011;12351;52.284;9.160;2023-08-21T04:51:49;1.67;;;0.90;;
24206;SDS011;12351;52.284;9.160;2023-08-21T04:54:42;2.05;;;0.80;;
24206;SDS011;12351;52.284;9.160;2023-08-21T04:57:34;2.03;;;0.90;;
24206;SDS011;12351;52.284;9.160;2023-08-21T05:00:27;3.02;;;0.82;;
24206;SDS011;12351;52.284;9.160;2023-08-21T05:03:14;1.63;;;0.83;;
24206;SDS011;12351;52.284;9.160;2023-08-21T05:06:04;3.37;;;1.00;;
24206;SDS011;12351;52.284;9.160;2023-08-21T05:08:53;3.27;;;1.00;;
24206;SDS011;12351;52.284;9.160;2023-08-21T05:11:45;2.30;;;1.00;;
24206;SDS011;12351;52.284;9.160;2023-08-21T05:14:37;1.67;;;0.90;;
24206;SDS011;12351;52.284;9.160;2023-08-21T05:17:26;2.60;;;0.90;;
24206;SDS011;12351;52.284;9.160;2023-08-21T05:20:19;3.40;;;0.90;;
24206;SDS011;12351;52.284;9.160;2023-08-21T05:23:11;6.50;;;1.07;;
24206;SDS011;12351;52.284;9.160;2023-08-21T05:26:01;1.97;;;0.83;;
24206;SDS011;12351;52.284;9.160;2023-08-21T05:28:49;1.60;;;0.80;;
24206;SDS011;12351;52.284;9.160;2023-08-21T05:31:39;2.93;;;0.93;;
24206;SDS011;12351;52.284;9.160;2023-08-21T05:34:29;2.30;;;1.00;;
24206;SDS011;12351;52.284;9.160;2023-08-21T05:37:20;1.80;;;0.87;;
24206;SDS011;12351;52.284;9.160;2023-08-21T05:40:08;2.80;;;0.90;;
24206;SDS011;12351;52.284;9.160;2023-08-21T05:43:00;1.77;;;0.83;;
24206;SDS011;12351;52.284;9.160;2023-08-21T05:45:50;1.50;;;0.83;;
24206;SDS011;12351;52.284;9.160;2023-08-21T05:48:39;3.27;;;1.00;;
24206;SDS011;12351;52.284;9.160;2023-08-21T05:51:29;1.67;;;0.70;;
24206;SDS011;12351;52.284;9.160;2023-08-21T05:54:18;3.80;;;0.90;;
24206;SDS011;12351;52.284;9.160;2023-08-21T05:57:14;4.20;;;0.80;;
24206;SDS011;12351;52.284;9.160;2023-08-21T06:00:02;2.27;;;1.07;;
24206;SDS011;12351;52.284;9.160;2023-08-21T06:02:51;2.67;;;0.73;;
24206;SDS011;12351;52.284;9.160;2023-08-21T06:05:43;5.87;;;0.90;;
24206;SDS011;12351;52.284;9.160;2023-08-21T06:08:34;2.13;;;0.77;;
24206;SDS011;12351;52.284;9.160;2023-08-21T06:11:27;1.50;;;0.80;;
24206;SDS011;12351;52.284;9.160;2023-08-21T06:14:18;1.83;;;0.80;;
24206;SDS011;12351;52.284;9.160;2023-08-21T06:17:08;1.83;;;0.73;;
24206;SDS011;12351;52.284;9.160;2023-08-21T06:19:59;3.13;;;0.93;;
24206;SDS011;12351;52.284;9.160;2023-08-21T06:22:52;1.67;;;1.03;;
24206;SDS011;12351;52.284;9.160;2023-08-21T06:25:41;1.77;;;0.87;;
24206;SDS011;12351;52.284;9.160;2023-08-21T06:28:31;3.87;;;1.17;;
24206;SDS011;12351;52.284;9.160;2023-08-21T06:31:23;3.80;;;1.10;;
24206;SDS011;12351;52.284;9.160;2023-08-21T06:34:12;7.13;;;1.20;;
24206;SDS011;12351;52.284;9.160;2023-08-21T06:37:02;2.90;;;1.07;;
24206;SDS011;12351;52.284;9.160;2023-08-21T06:39:52;1.73;;;1.10;;
24206;SDS011;12351;52.284;9.160;2023-08-21T06:42:43;3.93;;;1.40;;
24206;SDS011;12351;52.284;9.160;2023-08-21T06:45:31;3.70;;;1.50;;
24206;SDS011;12351;52.284;9.160;2023-08-21T06:48:22;5.43;;;1.50;;
24206;SDS011;12351;52.284;9.160;2023-08-21T06:51:12;4.53;;;1.40;;
24206;SDS011;12351;52.284;9.160;2023-08-21T06:53:59;4.77;;;1.47;;
24206;SDS011;12351;52.284;9.160;2023-08-21T06:56:51;2.73;;;1.50;;
24206;SDS011;12351;52.284;9.160;2023-08-21T06:59:39;3.83;;;1.70;;
24206;SDS011;12351;52.284;9.160;2023-08-21T07:02:31;3.73;;;1.90;;
24206;SDS011;12351;52.284;9.160;2023-08-21T07:05:23;3.20;;;1.70;;
24206;SDS011;12351;52.284;9.160;2023-08-21T07:08:14;3.57;;;1.83;;
24206;SDS011;12351;52.284;9.160;2023-08-21T07:11:03;4.67;;;1.73;;
24206;SDS011;12351;52.284;9.160;2023-08-21T07:13:55;4.50;;;1.43;;
24206;SDS011;12351;52.284;9.160;2023-08-21T07:16:44;4.93;;;1.73;;
24206;SDS011;12351;52.284;9.160;2023-08-21T07:19:33;3.67;;;1.57;;
24206;SDS011;12351;52.284;9.160;2023-08-21T07:22:25;6.07;;;1.80;;
24206;SDS011;12351;52.284;9.160;2023-08-21T07:25:14;4.30;;;1.60;;
24206;SDS011;12351;52.284;9.160;2023-08-21T07:28:05;5.93;;;1.80;;
24206;SDS011;12351;52.284;9.160;2023-08-21T07:30:55;3.47;;;1.47;;
24206;SDS011;12351;52.284;9.160;2023-08-21T07:33:44;3.60;;;1.40;;
24206;SDS011;12351;52.284;9.160;2023-08-21T07:36:36;5.10;;;1.50;;
24206;SDS011;12351;52.284;9.160;2023-08-21T07:39:26;3.33;;;1.30;;
24206;SDS011;12351;52.284;9.160;2023-08-21T07:42:17;3.03;;;1.60;;
24206;SDS011;12351;52.284;9.160;2023-08-21T07:45:06;3.73;;;1.37;;
24206;SDS011;12351;52.284;9.160;2023-08-21T07:47:57;5.13;;;1.50;;
24206;SDS011;12351;52.284;9.160;2023-08-21T07:50:50;5.27;;;1.47;;
24206;SDS011;12351;52.284;9.160;2023-08-21T07:53:39;5.33;;;1.60;;
24206;SDS011;12351;52.284;9.160;2023-08-21T07:56:28;3.87;;;1.50;;
24206;SDS011;12351;52.284;9.160;2023-08-21T07:59:16;6.37;;;1.60;;
24206;SDS011;12351;52.284;9.160;2023-08-21T08:02:07;3.70;;;1.67;;
24206;SDS011;12351;52.284;9.160;2023-08-21T08:05:01;5.15;;;1.85;;
24206;SDS011;12351;52.284;9.160;2023-08-21T08:07:51;4.17;;;1.62;;
24206;SDS011;12351;52.284;9.160;2023-08-21T08:10:40;5.27;;;1.40;;
24206;SDS011;12351;52.284;9.160;2023-08-21T08:13:36;8.07;;;1.57;;
24206;SDS011;12351;52.284;9.160;2023-08-21T08:16:26;8.37;;;1.80;;
24206;SDS011;12351;52.284;9.160;2023-08-21T08:19:16;5.17;;;1.70;;
24206;SDS011;12351;52.284;9.160;2023-08-21T08:22:06;4.87;;;1.37;;
24206;SDS011;12351;52.284;9.160;2023-08-21T08:24:54;4.00;;;1.13;;
24206;SDS011;12351;52.284;9.160;2023-08-21T08:27:44;5.87;;;1.50;;
24206;SDS011;12351;52.284;9.160;2023-08-21T08:30:36;4.37;;;1.70;;
24206;SDS011;12351;52.284;9.160;2023-08-21T08:33:27;3.33;;;1.20;;
24206;SDS011;12351;52.284;9.160;2023-08-21T08:36:19;5.43;;;1.80;;
24206;SDS011;12351;52.284;9.160;2023-08-21T08:39:05;4.03;;;1.47;;
24206;SDS011;12351;52.284;9.160;2023-08-21T08:41:56;4.83;;;1.60;;
24206;SDS011;12351;52.284;9.160;2023-08-21T08:44:46;2.77;;;1.40;;
24206;SDS011;12351;52.284;9.160;2023-08-21T08:47:35;5.40;;;1.50;;
24206;SDS011;12351;52.284;9.160;2023-08-21T08:50:28;4.20;;;1.47;;
24206;SDS011;12351;52.284;9.160;2023-08-21T08:53:20;5.08;;;1.80;;
24206;SDS011;12351;52.284;9.160;2023-08-21T08:56:08;5.53;;;1.67;;
24206;SDS011;12351;52.284;9.160;2023-08-21T08:59:00;4.27;;;1.23;;
24206;SDS011;12351;52.284;9.160;2023-08-21T09:01:49;8.87;;;2.93;;
24206;SDS011;12351;52.284;9.160;2023-08-21T09:04:41;5.93;;;1.60;;
24206;SDS011;12351;52.284;9.160;2023-08-21T09:07:32;3.40;;;1.30;;
24206;SDS011;12351;52.284;9.160;2023-08-21T09:10:22;3.10;;;1.10;;
24206;SDS011;12351;52.284;9.160;2023-08-21T09:13:13;4.30;;;1.27;;
24206;SDS011;12351;52.284;9.160;2023-08-21T09:16:05;2.60;;;1.10;;
24206;SDS011;12351;52.284;9.160;2023-08-21T09:19:00;5.33;;;1.20;;
24206;SDS011;12351;52.284;9.160;2023-08-21T09:21:50;2.60;;;1.10;;
24206;SDS011;12351;52.284;9.160;2023-08-21T09:24:59;3.20;;;1.13;;
24206;SDS011;12351;52.284;9.160;2023-08-21T09:27:33;2.67;;;0.82;;
24206;SDS011;12351;52.284;9.160;2023-08-21T09:30:22;4.60;;;1.00;;
24206;SDS011;12351;52.284;9.160;2023-08-21T09:33:16;3.17;;;1.10;;
24206;SDS011;12351;52.284;9.160;2023-08-21T09:36:10;3.30;;;1.10;;
24206;SDS011;12351;52.284;9.160;2023-08-21T09:38:59;3.23;;;1.13;;
24206;SDS011;12351;52.284;9.160;2023-08-21T09:44:40;4.40;;;1.17;;
24206;SDS011;12351;52.284;9.160;2023-08-21T09:47:29;2.13;;;0.73;;
24206;SDS011;12351;52.284;9.160;2023-08-21T09:50:23;2.83;;;1.07;;
24206;SDS011;12351;52.284;9.160;2023-08-21T09:53:14;2.83;;;1.30;;
24206;SDS011;12351;52.284;9.160;2023-08-21T09:56:02;2.73;;;1.00;;
24206;SDS011;12351;52.284;9.160;2023-08-21T09:58:53;4.60;;;1.00;;
24206;SDS011;12351;52.284;9.160;2023-08-21T10:01:42;4.17;;;1.10;;
24206;SDS011;12351;52.284;9.160;2023-08-21T10:04:36;6.70;;;1.10;;
24206;SDS011;12351;52.284;9.160;2023-08-21T10:07:24;5.70;;;1.10;;
24206;SDS011;12351;52.284;9.160;2023-08-21T10:10:17;7.47;;;1.47;;
24206;SDS011;12351;52.284;9.160;2023-08-21T10:13:07;2.80;;;1.30;;
24206;SDS011;12351;52.284;9.160;2023-08-21T10:15:57;5.60;;;1.33;;
24206;SDS011;12351;52.284;9.160;2023-08-21T10:21:37;2.70;;;1.20;;
24206;SDS011;12351;52.284;9.160;2023-08-21T10:24:27;6.70;;;1.80;;
24206;SDS011;12351;52.284;9.160;2023-08-21T10:27:17;5.30;;;1.20;;
24206;SDS011;12351;52.284;9.160;2023-08-21T10:30:12;7.27;;;1.33;;
24206;SDS011;12351;52.284;9.160;2023-08-21T10:32:57;2.93;;;1.10;;
24206;SDS011;12351;52.284;9.160;2023-08-21T10:35:51;3.12;;;0.98;;
24206;SDS011;12351;52.284;9.160;2023-08-21T10:41:30;2.13;;;1.00;;
24206;SDS011;12351;52.284;9.160;2023-08-21T10:50:10;2.30;;;0.90;;
24206;SDS011;12351;52.284;9.160;2023-08-21T10:53:00;3.90;;;1.00;;
24206;SDS011;12351;52.284;9.160;2023-08-21T10:58:45;4.37;;;1.30;;
24206;SDS011;12351;52.284;9.160;2023-08-21T11:04:23;2.67;;;1.20;;
24206;SDS011;12351;52.284;9.160;2023-08-21T11:07:14;3.30;;;1.17;;
24206;SDS011;12351;52.284;9.160;2023-08-21T11:10:03;3.37;;;1.20;;
24206;SDS011;12351;52.284;9.160;2023-08-21T11:12:56;4.17;;;1.05;;
24206;SDS011;12351;52.284;9.160;2023-08-21T11:15:49;5.35;;;1.02;;
24206;SDS011;12351;52.284;9.160;2023-08-21T11:18:37;2.60;;;0.80;;
24206;SDS011;12351;52.284;9.160;2023-08-21T11:21:25;4.03;;;1.00;;
24206;SDS011;12351;52.284;9.160;2023-08-21T11:24:16;4.17;;;1.07;;
24206;SDS011;12351;52.284;9.160;2023-08-21T11:27:07;2.03;;;1.00;;
24206;SDS011;12351;52.284;9.160;2023-08-21T11:29:58;6.03;;;1.17;;
24206;SDS011;12351;52.284;9.160;2023-08-21T11:32:47;2.57;;;0.90;;
24206;SDS011;12351;52.284;9.160;2023-08-21T11:35:39;5.83;;;1.13;;
24206;SDS011;12351;52.284;9.160;2023-08-21T11:38:33;3.43;;;0.90;;
24206;SDS011;12351;52.284;9.160;2023-08-21T11:41:22;7.20;;;1.10;;
24206;SDS011;12351;52.284;9.160;2023-08-21T11:44:12;4.03;;;1.10;;
24206;SDS011;12351;52.284;9.160;2023-08-21T11:47:04;5.87;;;1.20;;
24206;SDS011;12351;52.284;9.160;2023-08-21T11:49:54;3.60;;;1.23;;
24206;SDS011;12351;52.284;9.160;2023-08-21T11:52:41;3.07;;;1.00;;
24206;SDS011;12351;52.284;9.160;2023-08-21T11:55:34;2.47;;;0.90;;
24206;SDS011;12351;52.284;9.160;2023-08-21T11:58:26;1.98;;;1.00;;
24206;SDS011;12351;52.284;9.160;2023-08-21T12:01:17;1.37;;;0.80;;
24206;SDS011;12351;52.284;9.160;2023-08-21T12:06:57;5.87;;;1.43;;
24206;SDS011;12351;52.284;9.160;2023-08-21T12:09:46;2.63;;;1.17;;
24206;SDS011;12351;52.284;9.160;2023-08-21T12:12:38;4.73;;;1.00;;
24206;SDS011;12351;52.284;9.160;2023-08-21T12:15:26;2.33;;;0.90;;
24206;SDS011;12351;52.284;9.160;2023-08-21T12:18:17;2.03;;;1.10;;
24206;SDS011;12351;52.284;9.160;2023-08-21T12:21:05;3.03;;;0.83;;
24206;SDS011;12351;52.284;9.160;2023-08-21T12:23:56;3.13;;;1.07;;
24206;SDS011;12351;52.284;9.160;2023-08-21T12:26:47;3.33;;;0.90;;
24206;SDS011;12351;52.284;9.160;2023-08-21T12:29:38;1.60;;;0.80;;
24206;SDS011;12351;52.284;9.160;2023-08-21T12:32:26;1.40;;;0.70;;
24206;SDS011;12351;52.284;9.160;2023-08-21T12:35:17;1.50;;;0.50;;
24206;SDS011;12351;52.284;9.160;2023-08-21T12:38:10;2.37;;;0.83;;
24206;SDS011;12351;52.284;9.160;2023-08-21T12:40:59;4.17;;;0.82;;
24206;SDS011;12351;52.284;9.160;2023-08-21T12:43:49;6.80;;;0.90;;
24206;SDS011;12351;52.284;9.160;2023-08-21T12:46:39;3.93;;;0.80;;
24206;SDS011;12351;52.284;9.160;2023-08-21T12:49:30;4.53;;;0.70;;
24206;SDS011;12351;52.284;9.160;2023-08-21T12:52:23;3.23;;;1.00;;
24206;SDS011;12351;52.284;9.160;2023-08-21T12:55:10;3.90;;;1.10;;
24206;SDS011;12351;52.284;9.160;2023-08-21T12:58:00;3.23;;;0.90;;
24206;SDS011;12351;52.284;9.160;2023-08-21T13:00:51;2.63;;;0.80;;
24206;SDS011;12351;52.284;9.160;2023-08-21T13:03:38;2.37;;;0.70;;
24206;SDS011;12351;52.284;9.160;2023-08-21T13:06:29;2.83;;;0.97;;
24206;SDS011;12351;52.284;9.160;2023-08-21T13:09:21;3.40;;;1.07;;
24206;SDS011;12351;52.284;9.160;2023-08-21T13:12:11;1.73;;;0.80;;
24206;SDS011;12351;52.284;9.160;2023-08-21T13:15:01;3.20;;;0.83;;
24206;SDS011;12351;52.284;9.160;2023-08-21T13:17:52;2.50;;;0.90;;
24206;SDS011;12351;52.284;9.160;2023-08-21T13:20:43;1.67;;;0.97;;
24206;SDS011;12351;52.284;9.160;2023-08-21T13:23:35;2.17;;;0.90;;
24206;SDS011;12351;52.284;9.160;2023-08-21T13:26:22;1.57;;;0.60;;
24206;SDS011;12351;52.284;9.160;2023-08-21T13:29:12;3.03;;;0.90;;
24206;SDS011;12351;52.284;9.160;2023-08-21T13:32:02;4.03;;;1.07;;
24206;SDS011;12351;52.284;9.160;2023-08-21T13:34:49;1.27;;;0.67;;
24206;SDS011;12351;52.284;9.160;2023-08-21T13:37:42;1.85;;;0.72;;
24206;SDS011;12351;52.284;9.160;2023-08-21T13:40:33;1.60;;;0.73;;
24206;SDS011;12351;52.284;9.160;2023-08-21T13:43:22;1.87;;;0.70;;
24206;SDS011;12351;52.284;9.160;2023-08-21T13:46:13;1.80;;;0.70;;
24206;SDS011;12351;52.284;9.160;2023-08-21T13:49:06;1.70;;;1.00;;
24206;SDS011;12351;52.284;9.160;2023-08-21T13:54:45;3.45;;;0.85;;
24206;SDS011;12351;52.284;9.160;2023-08-21T13:57:36;2.30;;;0.90;;
24206;SDS011;12351;52.284;9.160;2023-08-21T14:00:26;2.93;;;0.80;;
24206;SDS011;12351;52.284;9.160;2023-08-21T14:03:15;3.30;;;0.93;;
24206;SDS011;12351;52.284;9.160;2023-08-21T14:06:05;2.40;;;0.80;;
24206;SDS011;12351;52.284;9.160;2023-08-21T14:08:55;2.03;;;1.03;;
24206;SDS011;12351;52.284;9.160;2023-08-21T14:11:44;2.93;;;0.80;;
24206;SDS011;12351;52.284;9.160;2023-08-21T14:14:36;5.17;;;1.10;;
24206;SDS011;12351;52.284;9.160;2023-08-21T14:17:25;3.27;;;0.97;;
24206;SDS011;12351;52.284;9.160;2023-08-21T14:20:16;1.50;;;0.70;;
24206;SDS011;12351;52.284;9.160;2023-08-21T14:23:06;3.23;;;0.63;;
24206;SDS011;12351;52.284;9.160;2023-08-21T14:25:57;1.80;;;0.73;;
24206;SDS011;12351;52.284;9.160;2023-08-21T14:28:51;1.47;;;0.67;;
24206;SDS011;12351;52.284;9.160;2023-08-21T14:31:41;1.03;;;0.70;;
24206;SDS011;12351;52.284;9.160;2023-08-21T14:34:31;4.60;;;0.90;;
24206;SDS011;12351;52.284;9.160;2023-08-21T14:37:23;3.93;;;1.07;;
24206;SDS011;12351;52.284;9.160;2023-08-21T14:40:12;1.70;;;0.80;;
24206;SDS011;12351;52.284;9.160;2023-08-21T14:43:04;1.30;;;0.83;;
24206;SDS011;12351;52.284;9.160;2023-08-21T14:45:53;3.17;;;0.87;;
24206;SDS011;12351;52.284;9.160;2023-08-21T14:48:45;2.73;;;0.80;;
24206;SDS011;12351;52.284;9.160;2023-08-21T14:51:34;3.43;;;0.70;;
24206;SDS011;12351;52.284;9.160;2023-08-21T14:54:26;3.00;;;0.80;;
24206;SDS011;12351;52.284;9.160;2023-08-21T14:57:15;2.70;;;0.90;;
24206;SDS011;12351;52.284;9.160;2023-08-21T15:00:07;2.87;;;0.83;;
24206;SDS011;12351;52.284;9.160;2023-08-21T15:02:55;10.27;;;1.30;;
24206;SDS011;12351;52.284;9.160;2023-08-21T15:05:46;2.40;;;0.80;;
24206;SDS011;12351;52.284;9.160;2023-08-21T15:08:37;2.80;;;0.93;;
24206;SDS011;12351;52.284;9.160;2023-08-21T15:11:27;2.45;;;0.70;;
24206;SDS011;12351;52.284;9.160;2023-08-21T15:14:16;1.63;;;0.77;;
24206;SDS011;12351;52.284;9.160;2023-08-21T15:17:06;2.53;;;0.80;;
24206;SDS011;12351;52.284;9.160;2023-08-21T15:19:57;5.27;;;1.10;;
24206;SDS011;12351;52.284;9.160;2023-08-21T15:22:47;4.00;;;0.90;;
24206;SDS011;12351;52.284;9.160;2023-08-21T15:25:38;1.67;;;0.80;;
24206;SDS011;12351;52.284;9.160;2023-08-21T15:28:30;3.72;;;0.80;;
24206;SDS011;12351;52.284;9.160;2023-08-21T15:31:19;1.83;;;0.80;;
24206;SDS011;12351;52.284;9.160;2023-08-21T15:34:11;1.73;;;0.70;;
24206;SDS011;12351;52.284;9.160;2023-08-21T15:37:01;1.90;;;0.87;;
24206;SDS011;12351;52.284;9.160;2023-08-21T15:39:50;1.97;;;0.77;;
24206;SDS011;12351;52.284;9.160;2023-08-21T15:42:38;3.53;;;0.90;;
24206;SDS011;12351;52.284;9.160;2023-08-21T15:45:29;1.07;;;0.70;;
24206;SDS011;12351;52.284;9.160;2023-08-21T15:48:20;2.17;;;0.70;;
24206;SDS011;12351;52.284;9.160;2023-08-21T15:51:10;1.53;;;0.70;;
24206;SDS011;12351;52.284;9.160;2023-08-21T15:54:01;1.90;;;0.67;;
24206;SDS011;12351;52.284;9.160;2023-08-21T15:56:51;3.87;;;0.83;;
24206;SDS011;12351;52.284;9.160;2023-08-21T15:59:41;1.20;;;0.80;;
24206;SDS011;12351;52.284;9.160;2023-08-21T16:02:31;4.10;;;0.83;;
24206;SDS011;12351;52.284;9.160;2023-08-21T16:05:22;4.20;;;0.73;;
24206;SDS011;12351;52.284;9.160;2023-08-21T16:08:13;2.47;;;0.70;;
24206;SDS011;12351;52.284;9.160;2023-08-21T16:11:03;3.93;;;0.80;;
24206;SDS011;12351;52.284;9.160;2023-08-21T16:13:54;4.33;;;0.90;;
24206;SDS011;12351;52.284;9.160;2023-08-21T16:16:43;2.80;;;0.97;;
24206;SDS011;12351;52.284;9.160;2023-08-21T16:19:34;1.53;;;0.60;;
24206;SDS011;12351;52.284;9.160;2023-08-21T16:25:16;1.22;;;0.88;;
24206;SDS011;12351;52.284;9.160;2023-08-21T16:28:07;3.97;;;0.90;;
24206;SDS011;12351;52.284;9.160;2023-08-21T16:30:56;4.20;;;1.40;;
24206;SDS011;12351;52.284;9.160;2023-08-21T16:33:44;3.87;;;1.00;;
24206;SDS011;12351;52.284;9.160;2023-08-21T16:36:34;3.87;;;1.07;;
24206;SDS011;12351;52.284;9.160;2023-08-21T16:39:21;0.87;;;0.70;;
24206;SDS011;12351;52.284;9.160;2023-08-21T16:42:12;4.80;;;1.60;;
24206;SDS011;12351;52.284;9.160;2023-08-21T16:45:04;3.07;;;1.10;;
24206;SDS011;12351;52.284;9.160;2023-08-21T16:47:52;3.57;;;1.20;;
24206;SDS011;12351;52.284;9.160;2023-08-21T16:50:43;1.70;;;0.70;;
24206;SDS011;12351;52.284;9.160;2023-08-21T16:53:32;1.93;;;1.00;;
24206;SDS011;12351;52.284;9.160;2023-08-21T16:56:21;2.73;;;0.97;;
24206;SDS011;12351;52.284;9.160;2023-08-21T16:59:10;1.97;;;0.80;;
24206;SDS011;12351;52.284;9.160;2023-08-21T17:02:00;1.17;;;0.83;;
24206;SDS011;12351;52.284;9.160;2023-08-21T17:04:51;2.20;;;0.80;;
24206;SDS011;12351;52.284;9.160;2023-08-21T17:07:41;3.87;;;1.97;;
24206;SDS011;12351;52.284;9.160;2023-08-21T17:10:31;5.33;;;1.53;;
24206;SDS011;12351;52.284;9.160;2023-08-21T17:13:23;3.10;;;1.00;;
24206;SDS011;12351;52.284;9.160;2023-08-21T17:16:15;3.40;;;0.80;;
24206;SDS011;12351;52.284;9.160;2023-08-21T17:19:04;1.70;;;0.83;;
24206;SDS011;12351;52.284;9.160;2023-08-21T17:21:54;2.37;;;1.00;;
24206;SDS011;12351;52.284;9.160;2023-08-21T17:24:43;1.03;;;0.70;;
24206;SDS011;12351;52.284;9.160;2023-08-21T17:27:35;3.10;;;0.80;;
24206;SDS011;12351;52.284;9.160;2023-08-21T17:30:24;2.43;;;0.80;;
24206;SDS011;12351;52.284;9.160;2023-08-21T17:33:15;1.67;;;0.90;;
24206;SDS011;12351;52.284;9.160;2023-08-21T17:36:04;1.37;;;0.80;;
24206;SDS011;12351;52.284;9.160;2023-08-21T17:38:56;2.10;;;0.90;;
24206;SDS011;12351;52.284;9.160;2023-08-21T17:41:48;3.37;;;1.13;;
24206;SDS011;12351;52.284;9.160;2023-08-21T17:44:37;3.10;;;0.90;;
24206;SDS011;12351;52.284;9.160;2023-08-21T17:47:27;3.33;;;1.10;;